sensor_id;sensor_type;location;lat;lon;timestamp;P1;durP1;ratioP1;P2;durP2;ratioP2
17644;SDS011;8941;51.986;4.340;2022-10-19T00:00:08;7.73;;;2.37;;
17644;SDS011;8941;51.986;4.340;2022-10-19T00:02:40;5.83;;;2.90;;
17644;SDS011;8941;51.986;4.340;2022-10-19T00:05:07;9.97;;;2.97;;
17644;SDS011;8941;51.986;4.340;2022-10-19T00:07:45;8.03;;;2.97;;
17644;SDS011;8941;51.986;4.340;2022-10-19T00:10:15;8.17;;;2.77;;
17644;SDS011;8941;51.986;4.340;2022-10-19T00:12:43;6.27;;;2.90;;
17644;SDS011;8941;51.986;4.340;2022-10-19T00:15:11;5.97;;;2.20;;
17644;SDS011;8941;51.986;4.340;2022-10-19T00:17:40;5.97;;;3.00;;
17644;SDS011;8941;51.986;4.340;2022-10-19T00:20:10;4.37;;;2.60;;
17644;SDS011;8941;51.986;4.340;2022-10-19T00:22:50;3.80;;;2.50;;
17644;SDS011;8941;51.986;4.340;2022-10-19T00:25:18;6.37;;;2.60;;
17644;SDS011;8941;51.986;4.340;2022-10-19T00:27:45;6.63;;;2.67;;
17644;SDS011;8941;51.986;4.340;2022-10-19T00:30:14;3.07;;;2.53;;
17644;SDS011;8941;51.986;4.340;2022-10-19T00:32:43;4.87;;;2.93;;
17644;SDS011;8941;51.986;4.340;2022-10-19T00:35:19;5.07;;;2.87;;
17644;SDS011;8941;51.986;4.340;2022-10-19T00:37:56;6.40;;;2.73;;
17644;SDS011;8941;51.986;4.340;2022-10-19T00:40:29;7.13;;;2.73;;
17644;SDS011;8941;51.986;4.340;2022-10-19T00:43:07;3.37;;;3.07;;
17644;SDS011;8941;51.986;4.340;2022-10-19T00:45:43;3.87;;;2.83;;
17644;SDS011;8941;51.986;4.340;2022-10-19T00:48:23;5.50;;;2.53;;
17644;SDS011;8941;51.986;4.340;2022-10-19T00:51:01;5.67;;;3.40;;
17644;SDS011;8941;51.986;4.340;2022-10-19T00:53:31;3.03;;;2.70;;
17644;SDS011;8941;51.986;4.340;2022-10-19T00:56:00;4.17;;;2.83;;
17644;SDS011;8941;51.986;4.340;2022-10-19T00:58:30;5.23;;;3.43;;
17644;SDS011;8941;51.986;4.340;2022-10-19T01:00:57;5.67;;;3.27;;
17644;SDS011;8941;51.986;4.340;2022-10-19T01:03:24;10.40;;;4.00;;
17644;SDS011;8941;51.986;4.340;2022-10-19T01:05:53;4.20;;;2.70;;
17644;SDS011;8941;51.986;4.340;2022-10-19T01:08:22;6.90;;;3.90;;
17644;SDS011;8941;51.986;4.340;2022-10-19T01:10:50;5.67;;;2.53;;
17644;SDS011;8941;51.986;4.340;2022-10-19T01:13:26;5.17;;;3.43;;
17644;SDS011;8941;51.986;4.340;2022-10-19T01:15:57;3.50;;;2.87;;
17644;SDS011;8941;51.986;4.340;2022-10-19T01:18:28;5.90;;;2.63;;
17644;SDS011;8941;51.986;4.340;2022-10-19T01:21:07;4.93;;;2.20;;
17644;SDS011;8941;51.986;4.340;2022-10-19T01:23:48;5.23;;;1.90;;
17644;SDS011;8941;51.986;4.340;2022-10-19T01:26:22;2.60;;;2.40;;
17644;SDS011;8941;51.986;4.340;2022-10-19T01:28:58;3.70;;;2.67;;
17644;SDS011;8941;51.986;4.340;2022-10-19T01:31:32;8.07;;;3.40;;
17644;SDS011;8941;51.986;4.340;2022-10-19T01:34:03;4.57;;;2.43;;
17644;SDS011;8941;51.986;4.340;2022-10-19T01:36:36;2.43;;;2.23;;
17644;SDS011;8941;51.986;4.340;2022-10-19T01:39:06;4.10;;;2.27;;
17644;SDS011;8941;51.986;4.340;2022-10-19T01:41:36;6.53;;;2.70;;
17644;SDS011;8941;51.986;4.340;2022-10-19T01:44:10;3.33;;;2.60;;
17644;SDS011;8941;51.986;4.340;2022-10-19T01:46:42;6.13;;;3.10;;
17644;SDS011;8941;51.986;4.340;2022-10-19T01:49:13;7.27;;;2.97;;
17644;SDS011;8941;51.986;4.340;2022-10-19T01:51:42;5.27;;;2.93;;
17644;SDS011;8941;51.986;4.340;2022-10-19T01:54:19;6.87;;;3.10;;
17644;SDS011;8941;51.986;4.340;2022-10-19T01:56:49;2.97;;;2.37;;
17644;SDS011;8941;51.986;4.340;2022-10-19T01:59:17;8.47;;;2.93;;
17644;SDS011;8941;51.986;4.340;2022-10-19T02:01:49;5.67;;;3.30;;
17644;SDS011;8941;51.986;4.340;2022-10-19T02:04:20;2.63;;;2.50;;
17644;SDS011;8941;51.986;4.340;2022-10-19T02:06:49;3.47;;;3.17;;
17644;SDS011;8941;51.986;4.340;2022-10-19T02:09:18;4.73;;;3.40;;
17644;SDS011;8941;51.986;4.340;2022-10-19T02:11:48;5.73;;;3.70;;
17644;SDS011;8941;51.986;4.340;2022-10-19T02:14:16;5.90;;;3.37;;
17644;SDS011;8941;51.986;4.340;2022-10-19T02:16:54;7.47;;;5.33;;
17644;SDS011;8941;51.986;4.340;2022-10-19T02:19:34;4.57;;;4.10;;
17644;SDS011;8941;51.986;4.340;2022-10-19T02:22:06;10.33;;;4.63;;
17644;SDS011;8941;51.986;4.340;2022-10-19T02:24:35;3.97;;;3.67;;
17644;SDS011;8941;51.986;4.340;2022-10-19T02:27:04;8.77;;;4.63;;
17644;SDS011;8941;51.986;4.340;2022-10-19T02:29:37;8.37;;;4.63;;
17644;SDS011;8941;51.986;4.340;2022-10-19T02:32:12;5.70;;;4.70;;
17644;SDS011;8941;51.986;4.340;2022-10-19T02:34:40;6.37;;;5.57;;
17644;SDS011;8941;51.986;4.340;2022-10-19T02:37:06;8.13;;;5.10;;
17644;SDS011;8941;51.986;4.340;2022-10-19T02:39:37;6.13;;;4.73;;
17644;SDS011;8941;51.986;4.340;2022-10-19T02:42:09;8.63;;;5.67;;
17644;SDS011;8941;51.986;4.340;2022-10-19T02:44:44;6.40;;;5.37;;
17644;SDS011;8941;51.986;4.340;2022-10-19T02:47:16;7.10;;;5.10;;
17644;SDS011;8941;51.986;4.340;2022-10-19T02:49:51;5.23;;;4.63;;
17644;SDS011;8941;51.986;4.340;2022-10-19T02:52:23;6.00;;;5.40;;
17644;SDS011;8941;51.986;4.340;2022-10-19T02:54:52;14.23;;;6.43;;
17644;SDS011;8941;51.986;4.340;2022-10-19T03:00:07;10.63;;;8.77;;
17644;SDS011;8941;51.986;4.340;2022-10-19T03:02:35;8.60;;;7.83;;
17644;SDS011;8941;51.986;4.340;2022-10-19T03:05:20;18.23;;;16.83;;
17644;SDS011;8941;51.986;4.340;2022-10-19T03:07:48;14.13;;;10.57;;
17644;SDS011;8941;51.986;4.340;2022-10-19T03:10:17;9.10;;;8.40;;
17644;SDS011;8941;51.986;4.340;2022-10-19T03:12:44;9.17;;;7.13;;
17644;SDS011;8941;51.986;4.340;2022-10-19T03:15:13;6.40;;;5.90;;
17644;SDS011;8941;51.986;4.340;2022-10-19T03:17:45;7.37;;;6.60;;
17644;SDS011;8941;51.986;4.340;2022-10-19T03:20:14;11.63;;;7.23;;
17644;SDS011;8941;51.986;4.340;2022-10-19T03:22:43;5.80;;;5.40;;
17644;SDS011;8941;51.986;4.340;2022-10-19T03:25:15;6.20;;;5.60;;
17644;SDS011;8941;51.986;4.340;2022-10-19T03:27:44;6.37;;;5.77;;
17644;SDS011;8941;51.986;4.340;2022-10-19T03:30:14;6.43;;;5.83;;
17644;SDS011;8941;51.986;4.340;2022-10-19T03:32:48;6.00;;;5.40;;
17644;SDS011;8941;51.986;4.340;2022-10-19T03:35:16;7.27;;;5.20;;
17644;SDS011;8941;51.986;4.340;2022-10-19T03:37:42;7.03;;;5.10;;
17644;SDS011;8941;51.986;4.340;2022-10-19T03:40:09;5.93;;;5.40;;
17644;SDS011;8941;51.986;4.340;2022-10-19T03:42:36;4.97;;;4.53;;
17644;SDS011;8941;51.986;4.340;2022-10-19T03:45:03;6.57;;;4.83;;
17644;SDS011;8941;51.986;4.340;2022-10-19T03:47:29;5.23;;;4.83;;
17644;SDS011;8941;51.986;4.340;2022-10-19T03:49:59;8.70;;;5.10;;
17644;SDS011;8941;51.986;4.340;2022-10-19T03:52:27;6.20;;;4.33;;
17644;SDS011;8941;51.986;4.340;2022-10-19T03:54:54;9.67;;;5.20;;
17644;SDS011;8941;51.986;4.340;2022-10-19T03:57:22;10.70;;;5.77;;
17644;SDS011;8941;51.986;4.340;2022-10-19T03:59:50;4.73;;;4.33;;
17644;SDS011;8941;51.986;4.340;2022-10-19T04:02:20;5.20;;;4.67;;
17644;SDS011;8941;51.986;4.340;2022-10-19T04:05:03;4.33;;;3.90;;
17644;SDS011;8941;51.986;4.340;2022-10-19T04:07:37;4.33;;;3.97;;
17644;SDS011;8941;51.986;4.340;2022-10-19T04:10:10;6.20;;;4.00;;
17644;SDS011;8941;51.986;4.340;2022-10-19T04:12:55;7.27;;;4.60;;
17644;SDS011;8941;51.986;4.340;2022-10-19T04:15:27;6.07;;;4.97;;
17644;SDS011;8941;51.986;4.340;2022-10-19T04:17:59;7.33;;;4.67;;
17644;SDS011;8941;51.986;4.340;2022-10-19T04:20:39;5.10;;;4.67;;
17644;SDS011;8941;51.986;4.340;2022-10-19T04:23:10;4.33;;;3.90;;
17644;SDS011;8941;51.986;4.340;2022-10-19T04:25:39;4.80;;;4.10;;
17644;SDS011;8941;51.986;4.340;2022-10-19T04:28:13;4.17;;;3.80;;
17644;SDS011;8941;51.986;4.340;2022-10-19T04:30:41;5.90;;;4.07;;
17644;SDS011;8941;51.986;4.340;2022-10-19T04:33:10;3.73;;;3.50;;
17644;SDS011;8941;51.986;4.340;2022-10-19T04:35:39;4.30;;;4.03;;
17644;SDS011;8941;51.986;4.340;2022-10-19T04:38:12;4.70;;;3.77;;
17644;SDS011;8941;51.986;4.340;2022-10-19T04:40:42;5.40;;;4.23;;
17644;SDS011;8941;51.986;4.340;2022-10-19T04:43:13;5.63;;;4.30;;
17644;SDS011;8941;51.986;4.340;2022-10-19T04:45:40;4.33;;;3.60;;
17644;SDS011;8941;51.986;4.340;2022-10-19T04:48:07;7.77;;;6.30;;
17644;SDS011;8941;51.986;4.340;2022-10-19T04:50:34;9.67;;;4.50;;
17644;SDS011;8941;51.986;4.340;2022-10-19T04:53:01;6.07;;;3.53;;
17644;SDS011;8941;51.986;4.340;2022-10-19T04:55:40;4.00;;;3.70;;
17644;SDS011;8941;51.986;4.340;2022-10-19T04:58:18;4.07;;;3.67;;
17644;SDS011;8941;51.986;4.340;2022-10-19T05:00:45;4.30;;;4.00;;
17644;SDS011;8941;51.986;4.340;2022-10-19T05:03:12;7.20;;;3.97;;
17644;SDS011;8941;51.986;4.340;2022-10-19T05:05:38;6.90;;;3.80;;
17644;SDS011;8941;51.986;4.340;2022-10-19T05:08:05;3.93;;;3.50;;
17644;SDS011;8941;51.986;4.340;2022-10-19T05:10:31;4.23;;;3.80;;
17644;SDS011;8941;51.986;4.340;2022-10-19T05:13:00;9.17;;;3.93;;
17644;SDS011;8941;51.986;4.340;2022-10-19T05:15:27;6.93;;;3.93;;
17644;SDS011;8941;51.986;4.340;2022-10-19T05:17:53;6.20;;;3.93;;
17644;SDS011;8941;51.986;4.340;2022-10-19T05:20:20;6.57;;;3.93;;
17644;SDS011;8941;51.986;4.340;2022-10-19T05:22:46;3.17;;;2.83;;
17644;SDS011;8941;51.986;4.340;2022-10-19T05:25:13;6.70;;;3.47;;
17644;SDS011;8941;51.986;4.340;2022-10-19T05:27:40;3.23;;;3.00;;
17644;SDS011;8941;51.986;4.340;2022-10-19T05:30:09;10.43;;;3.87;;
17644;SDS011;8941;51.986;4.340;2022-10-19T05:32:35;3.17;;;2.40;;
17644;SDS011;8941;51.986;4.340;2022-10-19T05:35:01;3.73;;;3.40;;
17644;SDS011;8941;51.986;4.340;2022-10-19T05:37:28;3.83;;;3.23;;
17644;SDS011;8941;51.986;4.340;2022-10-19T05:39:54;8.93;;;3.80;;
17644;SDS011;8941;51.986;4.340;2022-10-19T05:42:21;2.77;;;2.60;;
17644;SDS011;8941;51.986;4.340;2022-10-19T05:44:47;3.10;;;2.90;;
17644;SDS011;8941;51.986;4.340;2022-10-19T05:47:15;4.40;;;3.03;;
17644;SDS011;8941;51.986;4.340;2022-10-19T05:49:42;3.23;;;2.97;;
17644;SDS011;8941;51.986;4.340;2022-10-19T05:52:08;4.50;;;3.33;;
17644;SDS011;8941;51.986;4.340;2022-10-19T05:54:35;4.87;;;3.13;;
17644;SDS011;8941;51.986;4.340;2022-10-19T05:57:02;3.87;;;3.47;;
17644;SDS011;8941;51.986;4.340;2022-10-19T05:59:28;6.97;;;2.83;;
17644;SDS011;8941;51.986;4.340;2022-10-19T06:01:58;7.20;;;3.23;;
17644;SDS011;8941;51.986;4.340;2022-10-19T06:04:26;6.67;;;3.63;;
17644;SDS011;8941;51.986;4.340;2022-10-19T06:06:52;7.97;;;2.80;;
17644;SDS011;8941;51.986;4.340;2022-10-19T06:09:19;14.97;;;3.20;;
17644;SDS011;8941;51.986;4.340;2022-10-19T06:11:46;7.13;;;2.83;;
17644;SDS011;8941;51.986;4.340;2022-10-19T06:14:14;5.10;;;2.63;;
17644;SDS011;8941;51.986;4.340;2022-10-19T06:16:41;5.70;;;3.30;;
17644;SDS011;8941;51.986;4.340;2022-10-19T06:19:09;3.83;;;3.53;;
17644;SDS011;8941;51.986;4.340;2022-10-19T06:21:37;3.60;;;3.27;;
17644;SDS011;8941;51.986;4.340;2022-10-19T06:24:04;3.77;;;3.07;;
17644;SDS011;8941;51.986;4.340;2022-10-19T06:26:31;6.83;;;3.07;;
17644;SDS011;8941;51.986;4.340;2022-10-19T06:28:59;4.47;;;2.77;;
17644;SDS011;8941;51.986;4.340;2022-10-19T06:31:26;4.20;;;2.50;;
17644;SDS011;8941;51.986;4.340;2022-10-19T06:33:52;5.07;;;2.50;;
17644;SDS011;8941;51.986;4.340;2022-10-19T06:36:19;5.90;;;3.80;;
17644;SDS011;8941;51.986;4.340;2022-10-19T06:38:52;3.43;;;3.07;;
17644;SDS011;8941;51.986;4.340;2022-10-19T06:41:20;5.33;;;3.03;;
17644;SDS011;8941;51.986;4.340;2022-10-19T06:43:48;8.60;;;2.70;;
17644;SDS011;8941;51.986;4.340;2022-10-19T06:46:15;8.23;;;2.70;;
17644;SDS011;8941;51.986;4.340;2022-10-19T06:48:48;3.57;;;2.87;;
17644;SDS011;8941;51.986;4.340;2022-10-19T06:51:14;5.77;;;2.33;;
17644;SDS011;8941;51.986;4.340;2022-10-19T06:53:41;2.47;;;2.37;;
17644;SDS011;8941;51.986;4.340;2022-10-19T06:56:10;8.53;;;3.23;;
17644;SDS011;8941;51.986;4.340;2022-10-19T07:01:36;6.53;;;3.00;;
17644;SDS011;8941;51.986;4.340;2022-10-19T07:04:03;7.40;;;3.20;;
17644;SDS011;8941;51.986;4.340;2022-10-19T07:06:29;5.73;;;2.90;;
17644;SDS011;8941;51.986;4.340;2022-10-19T07:08:56;2.80;;;2.60;;
17644;SDS011;8941;51.986;4.340;2022-10-19T07:11:24;4.83;;;2.73;;
17644;SDS011;8941;51.986;4.340;2022-10-19T07:13:52;2.87;;;2.27;;
17644;SDS011;8941;51.986;4.340;2022-10-19T07:16:18;7.20;;;2.50;;
17644;SDS011;8941;51.986;4.340;2022-10-19T07:18:45;3.40;;;2.43;;
17644;SDS011;8941;51.986;4.340;2022-10-19T07:21:12;5.27;;;2.40;;
17644;SDS011;8941;51.986;4.340;2022-10-19T07:23:39;4.57;;;3.00;;
17644;SDS011;8941;51.986;4.340;2022-10-19T07:26:06;6.43;;;3.53;;
17644;SDS011;8941;51.986;4.340;2022-10-19T07:28:37;6.87;;;3.10;;
17644;SDS011;8941;51.986;4.340;2022-10-19T07:31:05;4.57;;;2.83;;
17644;SDS011;8941;51.986;4.340;2022-10-19T07:33:31;7.67;;;3.53;;
17644;SDS011;8941;51.986;4.340;2022-10-19T07:35:58;3.60;;;2.60;;
17644;SDS011;8941;51.986;4.340;2022-10-19T07:38:25;7.07;;;2.70;;
17644;SDS011;8941;51.986;4.340;2022-10-19T07:40:58;5.50;;;2.43;;
17644;SDS011;8941;51.986;4.340;2022-10-19T07:43:25;6.97;;;2.90;;
17644;SDS011;8941;51.986;4.340;2022-10-19T07:45:57;6.20;;;2.87;;
17644;SDS011;8941;51.986;4.340;2022-10-19T07:48:23;3.90;;;2.70;;
17644;SDS011;8941;51.986;4.340;2022-10-19T07:50:50;3.37;;;2.63;;
17644;SDS011;8941;51.986;4.340;2022-10-19T07:53:17;5.73;;;2.53;;
17644;SDS011;8941;51.986;4.340;2022-10-19T07:55:43;9.03;;;2.30;;
17644;SDS011;8941;51.986;4.340;2022-10-19T07:58:10;5.03;;;2.60;;
17644;SDS011;8941;51.986;4.340;2022-10-19T08:00:36;6.23;;;3.03;;
17644;SDS011;8941;51.986;4.340;2022-10-19T08:03:04;6.97;;;2.50;;
17644;SDS011;8941;51.986;4.340;2022-10-19T08:05:34;4.23;;;2.37;;
17644;SDS011;8941;51.986;4.340;2022-10-19T08:08:01;4.27;;;2.83;;
17644;SDS011;8941;51.986;4.340;2022-10-19T08:10:27;4.13;;;2.10;;
17644;SDS011;8941;51.986;4.340;2022-10-19T08:12:54;2.67;;;2.10;;
17644;SDS011;8941;51.986;4.340;2022-10-19T08:15:20;5.23;;;2.50;;
17644;SDS011;8941;51.986;4.340;2022-10-19T08:18:01;3.60;;;2.10;;
17644;SDS011;8941;51.986;4.340;2022-10-19T08:20:29;2.77;;;1.47;;
17644;SDS011;8941;51.986;4.340;2022-10-19T08:22:55;3.80;;;2.57;;
17644;SDS011;8941;51.986;4.340;2022-10-19T08:25:22;3.17;;;1.73;;
17644;SDS011;8941;51.986;4.340;2022-10-19T08:27:53;2.33;;;1.50;;
17644;SDS011;8941;51.986;4.340;2022-10-19T08:30:20;6.70;;;2.23;;
17644;SDS011;8941;51.986;4.340;2022-10-19T08:32:47;6.63;;;1.70;;
17644;SDS011;8941;51.986;4.340;2022-10-19T08:35:13;3.43;;;1.53;;
17644;SDS011;8941;51.986;4.340;2022-10-19T08:37:43;4.03;;;1.87;;
17644;SDS011;8941;51.986;4.340;2022-10-19T08:40:15;1.70;;;1.23;;
17644;SDS011;8941;51.986;4.340;2022-10-19T08:42:46;4.17;;;2.03;;
17644;SDS011;8941;51.986;4.340;2022-10-19T08:48:03;4.40;;;1.67;;
17644;SDS011;8941;51.986;4.340;2022-10-19T08:50:36;4.67;;;1.50;;
17644;SDS011;8941;51.986;4.340;2022-10-19T08:53:05;4.43;;;1.60;;
17644;SDS011;8941;51.986;4.340;2022-10-19T08:55:35;1.93;;;1.23;;
17644;SDS011;8941;51.986;4.340;2022-10-19T08:58:05;3.27;;;1.17;;
17644;SDS011;8941;51.986;4.340;2022-10-19T09:00:37;0.77;;;0.67;;
17644;SDS011;8941;51.986;4.340;2022-10-19T09:03:10;2.70;;;1.00;;
17644;SDS011;8941;51.986;4.340;2022-10-19T09:05:39;6.87;;;1.90;;
17644;SDS011;8941;51.986;4.340;2022-10-19T09:08:10;2.60;;;1.23;;
17644;SDS011;8941;51.986;4.340;2022-10-19T09:10:38;4.67;;;1.00;;
17644;SDS011;8941;51.986;4.340;2022-10-19T09:13:06;2.17;;;1.17;;
17644;SDS011;8941;51.986;4.340;2022-10-19T09:15:37;2.50;;;1.13;;
17644;SDS011;8941;51.986;4.340;2022-10-19T09:18:07;3.67;;;1.50;;
17644;SDS011;8941;51.986;4.340;2022-10-19T09:20:35;3.33;;;1.60;;
17644;SDS011;8941;51.986;4.340;2022-10-19T09:23:04;4.43;;;2.03;;
17644;SDS011;8941;51.986;4.340;2022-10-19T09:25:33;1.53;;;1.13;;
17644;SDS011;8941;51.986;4.340;2022-10-19T09:28:03;4.47;;;1.27;;
17644;SDS011;8941;51.986;4.340;2022-10-19T09:30:31;3.90;;;1.77;;
17644;SDS011;8941;51.986;4.340;2022-10-19T09:33:00;2.97;;;1.13;;
17644;SDS011;8941;51.986;4.340;2022-10-19T09:35:27;3.90;;;1.60;;
17644;SDS011;8941;51.986;4.340;2022-10-19T09:37:55;2.53;;;1.40;;
17644;SDS011;8941;51.986;4.340;2022-10-19T09:40:23;2.67;;;1.40;;
17644;SDS011;8941;51.986;4.340;2022-10-19T09:42:52;3.63;;;1.53;;
17644;SDS011;8941;51.986;4.340;2022-10-19T09:45:27;2.23;;;1.10;;
17644;SDS011;8941;51.986;4.340;2022-10-19T09:47:56;2.00;;;1.43;;
17644;SDS011;8941;51.986;4.340;2022-10-19T09:50:26;2.90;;;0.80;;
17644;SDS011;8941;51.986;4.340;2022-10-19T09:52:56;5.63;;;1.43;;
17644;SDS011;8941;51.986;4.340;2022-10-19T09:55:27;3.13;;;1.30;;
17644;SDS011;8941;51.986;4.340;2022-10-19T09:57:59;4.83;;;1.27;;
17644;SDS011;8941;51.986;4.340;2022-10-19T10:00:30;2.03;;;1.43;;
17644;SDS011;8941;51.986;4.340;2022-10-19T10:02:57;9.10;;;1.60;;
17644;SDS011;8941;51.986;4.340;2022-10-19T10:05:28;1.63;;;1.00;;
17644;SDS011;8941;51.986;4.340;2022-10-19T10:07:55;1.50;;;1.30;;
17644;SDS011;8941;51.986;4.340;2022-10-19T10:10:23;1.13;;;0.73;;
17644;SDS011;8941;51.986;4.340;2022-10-19T10:12:53;2.07;;;0.87;;
17644;SDS011;8941;51.986;4.340;2022-10-19T10:15:25;6.20;;;1.37;;
17644;SDS011;8941;51.986;4.340;2022-10-19T10:17:59;5.00;;;1.23;;
17644;SDS011;8941;51.986;4.340;2022-10-19T10:20:26;3.57;;;1.07;;
17644;SDS011;8941;51.986;4.340;2022-10-19T10:22:55;4.20;;;1.00;;
17644;SDS011;8941;51.986;4.340;2022-10-19T10:25:24;6.07;;;1.23;;
17644;SDS011;8941;51.986;4.340;2022-10-19T10:27:55;2.27;;;0.90;;
17644;SDS011;8941;51.986;4.340;2022-10-19T10:30:22;3.43;;;1.23;;
17644;SDS011;8941;51.986;4.340;2022-10-19T10:32:51;2.87;;;1.03;;
17644;SDS011;8941;51.986;4.340;2022-10-19T10:35:22;8.13;;;1.70;;
17644;SDS011;8941;51.986;4.340;2022-10-19T10:38:03;5.13;;;1.40;;
17644;SDS011;8941;51.986;4.340;2022-10-19T10:40:29;1.10;;;1.00;;
17644;SDS011;8941;51.986;4.340;2022-10-19T10:43:06;3.40;;;1.23;;
17644;SDS011;8941;51.986;4.340;2022-10-19T10:45:36;2.53;;;0.90;;
17644;SDS011;8941;51.986;4.340;2022-10-19T10:51:04;2.97;;;1.30;;
17644;SDS011;8941;51.986;4.340;2022-10-19T10:53:48;1.40;;;1.30;;
17644;SDS011;8941;51.986;4.340;2022-10-19T10:56:22;1.53;;;1.07;;
17644;SDS011;8941;51.986;4.340;2022-10-19T10:58:55;2.87;;;0.73;;
17644;SDS011;8941;51.986;4.340;2022-10-19T11:01:23;3.10;;;1.17;;
17644;SDS011;8941;51.986;4.340;2022-10-19T11:03:53;5.97;;;1.37;;
17644;SDS011;8941;51.986;4.340;2022-10-19T11:06:23;1.60;;;1.17;;
17644;SDS011;8941;51.986;4.340;2022-10-19T11:08:52;1.20;;;0.80;;
17644;SDS011;8941;51.986;4.340;2022-10-19T11:11:21;3.13;;;1.10;;
17644;SDS011;8941;51.986;4.340;2022-10-19T11:13:49;1.37;;;1.07;;
17644;SDS011;8941;51.986;4.340;2022-10-19T11:16:21;2.63;;;1.42;;
17644;SDS011;8941;51.986;4.340;2022-10-19T11:18:50;2.25;;;1.30;;
17644;SDS011;8941;51.986;4.340;2022-10-19T11:21:19;1.65;;;0.90;;
17644;SDS011;8941;51.986;4.340;2022-10-19T11:23:52;3.53;;;1.33;;
17644;SDS011;8941;51.986;4.340;2022-10-19T11:26:33;4.80;;;1.80;;
17644;SDS011;8941;51.986;4.340;2022-10-19T11:29:05;1.23;;;0.82;;
17644;SDS011;8941;51.986;4.340;2022-10-19T11:31:37;1.55;;;1.20;;
17644;SDS011;8941;51.986;4.340;2022-10-19T11:34:06;2.47;;;1.20;;
17644;SDS011;8941;51.986;4.340;2022-10-19T11:36:41;18.63;;;2.13;;
17644;SDS011;8941;51.986;4.340;2022-10-19T11:39:27;5.50;;;1.20;;
17644;SDS011;8941;51.986;4.340;2022-10-19T11:41:57;5.60;;;1.65;;
17644;SDS011;8941;51.986;4.340;2022-10-19T11:44:29;1.90;;;1.30;;
17644;SDS011;8941;51.986;4.340;2022-10-19T11:47:01;1.02;;;0.88;;
17644;SDS011;8941;51.986;4.340;2022-10-19T11:49:36;2.17;;;1.48;;
17644;SDS011;8941;51.986;4.340;2022-10-19T11:52:07;1.23;;;0.98;;
17644;SDS011;8941;51.986;4.340;2022-10-19T11:54:41;2.10;;;1.17;;
17644;SDS011;8941;51.986;4.340;2022-10-19T11:57:11;4.53;;;1.33;;
17644;SDS011;8941;51.986;4.340;2022-10-19T11:59:45;3.28;;;1.27;;
17644;SDS011;8941;51.986;4.340;2022-10-19T12:02:20;2.22;;;1.45;;
17644;SDS011;8941;51.986;4.340;2022-10-19T12:04:52;3.92;;;1.42;;
17644;SDS011;8941;51.986;4.340;2022-10-19T12:07:31;5.22;;;1.30;;
17644;SDS011;8941;51.986;4.340;2022-10-19T12:10:09;1.23;;;1.05;;
17644;SDS011;8941;51.986;4.340;2022-10-19T12:12:38;2.08;;;1.23;;
17644;SDS011;8941;51.986;4.340;2022-10-19T12:15:15;2.72;;;1.15;;
17644;SDS011;8941;51.986;4.340;2022-10-19T12:17:44;2.10;;;0.98;;
17644;SDS011;8941;51.986;4.340;2022-10-19T12:20:14;1.33;;;1.27;;
17644;SDS011;8941;51.986;4.340;2022-10-19T12:22:42;1.30;;;1.20;;
17644;SDS011;8941;51.986;4.340;2022-10-19T12:25:12;1.67;;;1.15;;
17644;SDS011;8941;51.986;4.340;2022-10-19T12:27:39;2.35;;;1.73;;
17644;SDS011;8941;51.986;4.340;2022-10-19T12:30:07;3.78;;;1.80;;
17644;SDS011;8941;51.986;4.340;2022-10-19T12:32:36;3.67;;;1.35;;
17644;SDS011;8941;51.986;4.340;2022-10-19T12:35:06;3.55;;;1.20;;
17644;SDS011;8941;51.986;4.340;2022-10-19T12:37:37;2.03;;;1.13;;
17644;SDS011;8941;51.986;4.340;2022-10-19T12:40:07;3.55;;;1.73;;
17644;SDS011;8941;51.986;4.340;2022-10-19T12:42:40;1.20;;;1.13;;
17644;SDS011;8941;51.986;4.340;2022-10-19T12:45:16;2.28;;;1.98;;
17644;SDS011;8941;51.986;4.340;2022-10-19T12:53:06;2.25;;;1.23;;
17644;SDS011;8941;51.986;4.340;2022-10-19T12:55:47;3.05;;;1.70;;
17644;SDS011;8941;51.986;4.340;2022-10-19T12:58:28;2.60;;;1.20;;
17644;SDS011;8941;51.986;4.340;2022-10-19T13:00:56;1.30;;;1.20;;
17644;SDS011;8941;51.986;4.340;2022-10-19T13:03:24;2.73;;;1.60;;
17644;SDS011;8941;51.986;4.340;2022-10-19T13:05:55;3.30;;;1.93;;
17644;SDS011;8941;51.986;4.340;2022-10-19T13:08:24;3.00;;;1.20;;
17644;SDS011;8941;51.986;4.340;2022-10-19T13:11:02;4.93;;;1.40;;
17644;SDS011;8941;51.986;4.340;2022-10-19T13:19:03;5.20;;;1.37;;
17644;SDS011;8941;51.986;4.340;2022-10-19T13:21:43;1.77;;;1.27;;
17644;SDS011;8941;51.986;4.340;2022-10-19T13:24:18;5.37;;;1.90;;
17644;SDS011;8941;51.986;4.340;2022-10-19T13:26:45;2.23;;;1.53;;
17644;SDS011;8941;51.986;4.340;2022-10-19T13:29:23;3.17;;;1.97;;
17644;SDS011;8941;51.986;4.340;2022-10-19T13:31:49;4.10;;;1.87;;
17644;SDS011;8941;51.986;4.340;2022-10-19T13:34:18;3.47;;;2.23;;
17644;SDS011;8941;51.986;4.340;2022-10-19T13:36:57;3.73;;;1.90;;
17644;SDS011;8941;51.986;4.340;2022-10-19T13:39:25;3.10;;;1.17;;
17644;SDS011;8941;51.986;4.340;2022-10-19T13:41:52;2.37;;;1.23;;
17644;SDS011;8941;51.986;4.340;2022-10-19T13:44:25;1.47;;;1.40;;
17644;SDS011;8941;51.986;4.340;2022-10-19T13:55:23;3.57;;;1.57;;
17644;SDS011;8941;51.986;4.340;2022-10-19T13:58:04;2.37;;;1.70;;
17644;SDS011;8941;51.986;4.340;2022-10-19T14:00:44;5.13;;;1.77;;
17644;SDS011;8941;51.986;4.340;2022-10-19T14:03:19;3.90;;;1.17;;
17644;SDS011;8941;51.986;4.340;2022-10-19T14:05:53;4.50;;;1.40;;
17644;SDS011;8941;51.986;4.340;2022-10-19T14:08:29;3.83;;;1.90;;
17644;SDS011;8941;51.986;4.340;2022-10-19T14:11:01;2.93;;;1.50;;
17644;SDS011;8941;51.986;4.340;2022-10-19T14:13:30;5.17;;;2.00;;
17644;SDS011;8941;51.986;4.340;2022-10-19T14:15:57;3.50;;;1.73;;
17644;SDS011;8941;51.986;4.340;2022-10-19T14:18:25;5.03;;;2.67;;
17644;SDS011;8941;51.986;4.340;2022-10-19T14:20:55;2.63;;;1.47;;
17644;SDS011;8941;51.986;4.340;2022-10-19T14:23:22;6.80;;;2.33;;
17644;SDS011;8941;51.986;4.340;2022-10-19T14:25:49;2.23;;;2.13;;
17644;SDS011;8941;51.986;4.340;2022-10-19T14:28:17;1.73;;;1.63;;
17644;SDS011;8941;51.986;4.340;2022-10-19T14:30:45;2.90;;;1.77;;
17644;SDS011;8941;51.986;4.340;2022-10-19T14:33:19;2.83;;;1.47;;
17644;SDS011;8941;51.986;4.340;2022-10-19T14:35:47;2.10;;;2.00;;
17644;SDS011;8941;51.986;4.340;2022-10-19T14:38:16;2.57;;;2.30;;
17644;SDS011;8941;51.986;4.340;2022-10-19T14:40:44;3.23;;;1.50;;
17644;SDS011;8941;51.986;4.340;2022-10-19T14:43:12;3.00;;;2.03;;
17644;SDS011;8941;51.986;4.340;2022-10-19T14:45:45;2.17;;;1.70;;
17644;SDS011;8941;51.986;4.340;2022-10-19T14:48:27;4.87;;;2.27;;
17644;SDS011;8941;51.986;4.340;2022-10-19T14:50:55;4.83;;;1.53;;
17644;SDS011;8941;51.986;4.340;2022-10-19T14:53:29;5.20;;;1.77;;
17644;SDS011;8941;51.986;4.340;2022-10-19T14:55:58;4.17;;;1.47;;
17644;SDS011;8941;51.986;4.340;2022-10-19T14:58:26;2.13;;;1.63;;
17644;SDS011;8941;51.986;4.340;2022-10-19T15:00:55;3.53;;;1.90;;
17644;SDS011;8941;51.986;4.340;2022-10-19T15:03:23;2.90;;;1.60;;
17644;SDS011;8941;51.986;4.340;2022-10-19T15:05:53;5.07;;;1.93;;
17644;SDS011;8941;51.986;4.340;2022-10-19T15:08:22;2.70;;;1.60;;
17644;SDS011;8941;51.986;4.340;2022-10-19T15:10:49;2.53;;;1.80;;
17644;SDS011;8941;51.986;4.340;2022-10-19T15:13:20;6.63;;;1.83;;
17644;SDS011;8941;51.986;4.340;2022-10-19T15:15:49;1.50;;;1.40;;
17644;SDS011;8941;51.986;4.340;2022-10-19T15:18:17;1.57;;;1.47;;
17644;SDS011;8941;51.986;4.340;2022-10-19T15:20:44;5.87;;;1.67;;
17644;SDS011;8941;51.986;4.340;2022-10-19T15:26:15;12.83;;;2.20;;
17644;SDS011;8941;51.986;4.340;2022-10-19T15:28:42;1.93;;;1.50;;
17644;SDS011;8941;51.986;4.340;2022-10-19T15:31:13;3.93;;;2.20;;
17644;SDS011;8941;51.986;4.340;2022-10-19T15:33:43;5.00;;;2.00;;
17644;SDS011;8941;51.986;4.340;2022-10-19T15:36:10;3.50;;;1.80;;
17644;SDS011;8941;51.986;4.340;2022-10-19T15:38:41;2.63;;;1.50;;
17644;SDS011;8941;51.986;4.340;2022-10-19T15:41:13;2.57;;;1.70;;
17644;SDS011;8941;51.986;4.340;2022-10-19T15:43:43;3.63;;;1.70;;
17644;SDS011;8941;51.986;4.340;2022-10-19T15:46:21;2.27;;;1.53;;
17644;SDS011;8941;51.986;4.340;2022-10-19T15:48:49;7.07;;;2.20;;
17644;SDS011;8941;51.986;4.340;2022-10-19T15:53:58;1.93;;;1.60;;